createdAt,value
2019-05-10T00:00:26.935Z,5.67
2019-05-10T00:03:11.748Z,7.70
2019-05-10T00:05:56.437Z,5.53
2019-05-10T00:08:41.213Z,7.10
2019-05-10T00:11:25.963Z,6.92
2019-05-10T00:13:54.436Z,5.53
2019-05-10T00:16:21.180Z,4.90
2019-05-10T00:18:47.417Z,6.30
2019-05-10T00:21:13.694Z,5.60
2019-05-10T00:23:39.954Z,7.20
2019-05-10T00:26:06.312Z,6.70
2019-05-10T00:28:32.648Z,5.40
2019-05-10T00:30:59.055Z,6.42
2019-05-10T00:33:25.244Z,5.12
2019-05-10T00:35:51.537Z,6.05
2019-05-10T00:38:20.082Z,6.62
2019-05-10T00:40:46.363Z,5.83
2019-05-10T00:43:14.988Z,6.15
2019-05-10T00:45:41.431Z,8.90
2019-05-10T00:48:07.727Z,7.05
2019-05-10T00:50:33.999Z,6.53
2019-05-10T00:53:00.318Z,8.50
2019-05-10T00:55:26.594Z,7.70
2019-05-10T00:57:52.832Z,5.40
2019-05-10T01:00:19.806Z,8.15
2019-05-10T01:02:46.051Z,8.10
2019-05-10T01:05:12.401Z,7.53
2019-05-10T01:07:38.681Z,6.65
2019-05-10T01:10:05.777Z,8.58
2019-05-10T01:12:32.025Z,7.75
2019-05-10T01:14:58.316Z,8.88
2019-05-10T01:17:24.653Z,12.55
2019-05-10T01:19:50.891Z,8.08
2019-05-10T01:22:17.252Z,8.03
2019-05-10T01:24:43.447Z,8.35
2019-05-10T01:27:09.830Z,5.78
2019-05-10T01:29:36.186Z,7.08
2019-05-10T01:32:02.667Z,6.42
2019-05-10T01:34:28.930Z,9.18
2019-05-10T01:36:55.195Z,6.03
2019-05-10T01:39:21.486Z,6.22
2019-05-10T01:41:47.742Z,8.35
2019-05-10T01:44:13.985Z,9.63
2019-05-10T01:46:42.171Z,7.08
2019-05-10T01:49:08.413Z,6.72
2019-05-10T01:51:34.769Z,6.12
2019-05-10T01:54:01.075Z,6.75
2019-05-10T01:56:27.375Z,9.85
2019-05-10T01:58:55.574Z,9.28
2019-05-10T02:01:21.940Z,8.95
2019-05-10T02:03:48.257Z,7.25
2019-05-10T02:06:14.689Z,8.73
2019-05-10T02:08:42.174Z,9.40
2019-05-10T02:11:11.243Z,8.33
2019-05-10T02:13:37.503Z,11.55
2019-05-10T02:16:03.868Z,12.23
2019-05-10T02:18:32.610Z,10.05
2019-05-10T02:20:59.563Z,8.83
2019-05-10T02:23:26.310Z,11.53
2019-05-10T02:26:08.390Z,9.10
2019-05-10T02:28:20.620Z,8.38
2019-05-10T02:30:47.168Z,9.63
2019-05-10T02:33:13.530Z,9.68
2019-05-10T02:35:39.733Z,10.20
2019-05-10T02:38:05.992Z,9.28
2019-05-10T02:40:32.409Z,10.58
2019-05-10T02:43:00.759Z,12.05
2019-05-10T02:45:27.321Z,10.75
2019-05-10T02:47:53.557Z,11.70
2019-05-10T02:50:20.020Z,11.40
2019-05-10T02:52:46.391Z,13.30
2019-05-10T02:55:13.026Z,15.60
2019-05-10T02:57:39.767Z,15.43
2019-05-10T03:00:07.770Z,15.80
2019-05-10T03:02:35.202Z,13.22
2019-05-10T03:05:03.598Z,13.50
2019-05-10T03:07:33.689Z,15.20
2019-05-10T03:10:02.231Z,16.45
2019-05-10T03:12:28.680Z,16.70
2019-05-10T03:14:56.685Z,16.40
2019-05-10T03:17:23.957Z,17.98
2019-05-10T03:19:51.682Z,19.12
2019-05-10T03:22:19.634Z,15.13
2019-05-10T03:24:46.023Z,18.65
2019-05-10T03:27:12.358Z,17.62
2019-05-10T03:29:38.764Z,20.72
2019-05-10T03:32:05.099Z,17.52
2019-05-10T03:34:31.341Z,18.77
2019-05-10T03:36:57.700Z,22.00
2019-05-10T03:39:24.707Z,19.32
2019-05-10T03:41:52.986Z,18.82
2019-05-10T03:44:19.342Z,18.35
2019-05-10T03:46:45.578Z,19.70
2019-05-10T03:49:11.879Z,17.15
2019-05-10T03:51:38.140Z,18.92
2019-05-10T03:54:04.431Z,22.90
2019-05-10T03:56:30.792Z,19.23
2019-05-10T03:58:57.058Z,20.10
2019-05-10T04:01:23.358Z,21.68
2019-05-10T04:03:49.719Z,19.37
2019-05-10T04:06:17.929Z,21.70
2019-05-10T04:08:44.365Z,20.08
2019-05-10T04:11:10.605Z,18.17
2019-05-10T04:13:36.882Z,19.77
2019-05-10T04:16:03.234Z,20.00
2019-05-10T04:18:29.488Z,19.35
2019-05-10T04:20:55.762Z,20.15
2019-05-10T04:23:22.143Z,18.73
2019-05-10T04:25:48.415Z,20.70
2019-05-10T04:28:14.666Z,19.23
2019-05-10T04:30:40.973Z,18.85
2019-05-10T04:33:07.249Z,21.37
2019-05-10T04:35:33.480Z,20.37
2019-05-10T04:38:04.125Z,19.98
2019-05-10T04:40:27.765Z,19.50
2019-05-10T04:42:54.094Z,23.00
2019-05-10T04:45:20.508Z,22.93
2019-05-10T04:47:46.775Z,18.30
2019-05-10T04:50:13.187Z,22.60
2019-05-10T04:52:39.439Z,24.98
2019-05-10T04:55:05.698Z,24.77
2019-05-10T04:57:47.980Z,20.85
2019-05-10T05:00:00.199Z,25.32
2019-05-10T05:02:26.457Z,26.07
2019-05-10T05:04:54.605Z,23.07
2019-05-10T05:07:23.888Z,22.80
2019-05-10T05:09:50.238Z,24.95
2019-05-10T05:12:16.530Z,27.50
2019-05-10T05:14:42.795Z,26.75
2019-05-10T05:17:09.040Z,27.15
2019-05-10T05:19:35.322Z,25.72
2019-05-10T05:22:01.906Z,27.02
2019-05-10T05:24:28.246Z,28.87
2019-05-10T05:26:54.526Z,29.50
2019-05-10T05:29:20.787Z,31.57
2019-05-10T05:31:47.196Z,30.60
2019-05-10T05:34:13.597Z,28.38
2019-05-10T05:36:40.042Z,27.73
2019-05-10T05:39:06.880Z,34.08
2019-05-10T05:41:47.962Z,31.85
2019-05-10T05:44:01.330Z,31.70
2019-05-10T05:46:27.714Z,30.97
2019-05-10T05:48:53.966Z,28.47
2019-05-10T05:51:20.327Z,28.00
2019-05-10T05:53:49.543Z,26.15
2019-05-10T05:56:15.801Z,27.90
2019-05-10T05:58:44.393Z,26.62
2019-05-10T06:01:10.509Z,27.55
2019-05-10T06:03:36.754Z,27.95
2019-05-10T06:06:15.494Z,25.60
2019-05-10T06:08:31.309Z,26.93
2019-05-10T06:11:00.056Z,26.68
2019-05-10T06:13:30.328Z,30.23
2019-05-10T06:15:53.941Z,28.10
2019-05-10T06:18:20.193Z,27.25
2019-05-10T06:20:49.671Z,25.92
2019-05-10T06:23:15.980Z,27.32
2019-05-10T06:25:43.008Z,27.40
2019-05-10T06:28:25.865Z,27.55
2019-05-10T06:30:37.725Z,31.73
2019-05-10T06:33:12.759Z,33.05
2019-05-10T06:35:32.121Z,28.00
2019-05-10T06:37:58.537Z,27.15
2019-05-10T06:40:37.620Z,33.05
2019-05-10T06:42:52.921Z,26.62
2019-05-10T06:45:19.444Z,30.08
2019-05-10T06:47:47.890Z,27.17
2019-05-10T06:50:14.448Z,26.55
2019-05-10T06:52:40.836Z,27.17
2019-05-10T06:55:07.635Z,26.20
2019-05-10T06:57:33.985Z,26.62
2019-05-10T07:00:06.240Z,27.75
2019-05-10T07:02:32.405Z,26.25
2019-05-10T07:04:56.962Z,20.12
2019-05-10T07:07:42.417Z,18.07
2019-05-10T07:10:15.789Z,15.48
2019-05-10T07:12:19.416Z,14.80
2019-05-10T07:14:46.702Z,13.38
2019-05-10T07:17:13.342Z,12.95
2019-05-10T07:19:42.121Z,14.35
2019-05-10T07:22:08.210Z,15.85
2019-05-10T07:24:34.424Z,16.73
2019-05-10T07:27:02.450Z,14.55
2019-05-10T07:29:30.316Z,16.37
2019-05-10T07:31:56.891Z,17.05
2019-05-10T07:34:23.134Z,10.13
2019-05-10T07:36:49.455Z,11.43
2019-05-10T07:39:15.786Z,12.60
2019-05-10T07:41:42.222Z,14.15
2019-05-10T07:44:10.557Z,14.90
2019-05-10T07:46:39.879Z,16.27
2019-05-10T07:49:04.937Z,12.88
2019-05-10T07:51:31.301Z,13.58
2019-05-10T07:54:04.522Z,15.08
2019-05-10T07:56:25.657Z,15.68
2019-05-10T07:58:52.084Z,16.70
2019-05-10T08:01:29.383Z,14.60
2019-05-10T08:03:52.142Z,16.15
2019-05-10T08:06:15.506Z,18.02
2019-05-10T08:08:42.140Z,15.48
2019-05-10T08:11:08.743Z,22.37
2019-05-10T08:13:35.310Z,19.12
2019-05-10T08:16:05.416Z,18.98
2019-05-10T08:18:29.968Z,19.48
2019-05-10T08:21:02.012Z,17.77
2019-05-10T08:23:27.875Z,18.70
2019-05-10T08:25:53.453Z,14.85
2019-05-10T08:28:22.661Z,17.85
2019-05-10T08:30:57.334Z,15.70
2019-05-10T08:33:16.169Z,17.48
2019-05-10T08:35:45.556Z,16.48
2019-05-10T08:38:12.688Z,16.23
2019-05-10T08:40:38.859Z,16.37
2019-05-10T08:43:08.919Z,12.28
2019-05-10T08:45:33.355Z,17.05
2019-05-10T08:48:02.121Z,14.85
2019-05-10T08:50:44.043Z,12.73
2019-05-10T08:52:56.980Z,14.83
2019-05-10T08:55:23.445Z,15.18
2019-05-10T08:57:49.699Z,17.07
2019-05-10T09:00:16.184Z,16.00
2019-05-10T09:02:42.927Z,14.70
2019-05-10T09:05:12.258Z,12.90
2019-05-10T09:07:39.095Z,16.27
2019-05-10T09:10:09.709Z,16.55
2019-05-10T09:12:41.722Z,16.37
2019-05-10T09:15:10.313Z,14.75
2019-05-10T09:17:35.654Z,14.63
2019-05-10T09:20:02.798Z,18.20
2019-05-10T09:22:33.916Z,18.55
2019-05-10T09:24:57.503Z,15.75
2019-05-10T09:27:29.061Z,12.07
2019-05-10T09:29:53.031Z,11.68
2019-05-10T09:32:21.471Z,8.83
2019-05-10T09:34:47.515Z,9.63
2019-05-10T09:37:17.571Z,11.63
2019-05-10T09:39:42.525Z,11.70
2019-05-10T09:42:16.378Z,10.65
2019-05-10T09:44:36.973Z,11.53
2019-05-10T09:47:04.030Z,11.25
2019-05-10T09:49:33.078Z,9.60
2019-05-10T09:51:58.790Z,9.03
2019-05-10T09:54:29.386Z,5.12
2019-05-10T09:56:57.359Z,7.70
2019-05-10T09:59:23.188Z,6.70
2019-05-10T10:01:49.567Z,6.20
2019-05-10T10:04:17.841Z,7.42
2019-05-10T10:06:48.188Z,5.95
2019-05-10T10:09:14.133Z,7.00
2019-05-10T10:11:40.716Z,5.53
2019-05-10T10:14:07.627Z,6.20
2019-05-10T10:16:35.282Z,8.53
2019-05-10T10:19:01.620Z,5.83
2019-05-10T10:21:35.102Z,6.83
2019-05-10T10:24:00.031Z,7.97
2019-05-10T10:26:24.146Z,6.70
2019-05-10T10:28:55.114Z,6.22
2019-05-10T10:31:28.860Z,6.75
2019-05-10T10:33:54.582Z,7.97
2019-05-10T10:36:15.942Z,8.43
2019-05-10T10:38:45.395Z,10.45
2019-05-10T10:41:10.277Z,8.55
2019-05-10T10:43:37.239Z,6.97
2019-05-10T10:46:04.475Z,5.45
2019-05-10T10:48:30.712Z,6.17
2019-05-10T10:50:58.722Z,5.80
2019-05-10T10:53:25.280Z,6.83
2019-05-10T10:55:54.632Z,4.42
2019-05-10T10:58:19.614Z,6.90
2019-05-10T11:00:48.162Z,4.62
2019-05-10T11:03:13.997Z,5.25
2019-05-10T11:05:40.368Z,4.78
2019-05-10T11:08:06.653Z,5.60
2019-05-10T11:10:33.016Z,4.53
2019-05-10T11:13:02.908Z,7.17
2019-05-10T11:15:32.986Z,4.72
2019-05-10T11:17:56.342Z,4.58
2019-05-10T11:20:22.743Z,6.17
2019-05-10T11:22:53.131Z,4.33
2019-05-10T11:25:17.030Z,5.15
2019-05-10T11:27:47.558Z,5.58
2019-05-10T11:30:12.388Z,5.42
2019-05-10T11:32:38.660Z,6.03
2019-05-10T11:35:05.660Z,8.38
2019-05-10T11:37:36.154Z,4.85
2019-05-10T11:40:01.758Z,3.60
2019-05-10T11:42:30.390Z,6.92
2019-05-10T11:44:56.302Z,4.55
2019-05-10T11:47:26.699Z,4.75
2019-05-10T11:49:51.020Z,3.65
2019-05-10T11:52:17.508Z,6.50
2019-05-10T11:54:43.804Z,4.40
2019-05-10T11:57:13.619Z,6.85
2019-05-10T11:59:41.380Z,5.83
2019-05-10T12:02:10.327Z,5.85
2019-05-10T12:04:39.257Z,6.65
2019-05-10T12:07:08.327Z,6.37
2019-05-10T12:09:31.774Z,5.80
2019-05-10T12:11:58.218Z,4.67
2019-05-10T12:14:24.491Z,3.70
2019-05-10T12:16:54.488Z,7.78
2019-05-10T12:19:21.171Z,7.20
2019-05-10T12:21:46.898Z,6.42
2019-05-10T12:24:31.189Z,7.05
2019-05-10T12:27:14.048Z,5.50
2019-05-10T12:29:13.783Z,8.38
2019-05-10T12:31:37.914Z,5.55
2019-05-10T12:34:08.867Z,6.70
2019-05-10T12:36:32.437Z,5.75
2019-05-10T12:38:59.493Z,9.60
2019-05-10T12:41:27.094Z,8.73
2019-05-10T12:44:02.550Z,6.80
2019-05-10T12:46:21.539Z,8.33
2019-05-10T12:48:47.834Z,7.10
2019-05-10T12:51:16.351Z,5.62
2019-05-10T12:53:47.615Z,5.92
2019-05-10T12:56:12.472Z,4.85
2019-05-10T12:58:38.899Z,5.33
2019-05-10T13:01:05.379Z,6.40
2019-05-10T13:03:33.726Z,7.40
2019-05-10T13:06:00.449Z,5.60
2019-05-10T13:08:26.806Z,5.87
2019-05-10T13:10:53.095Z,3.85
2019-05-10T13:13:26.990Z,3.42
2019-05-10T13:15:50.719Z,4.58
2019-05-10T13:18:17.026Z,5.33
2019-05-10T13:20:43.534Z,6.10
2019-05-10T13:23:15.547Z,6.37
2019-05-10T13:25:37.891Z,7.50
2019-05-10T13:28:10.462Z,7.00
2019-05-10T13:30:32.538Z,6.78
2019-05-10T13:33:00.315Z,4.92
2019-05-10T13:35:26.925Z,6.67
2019-05-10T13:37:56.790Z,6.47
2019-05-10T13:40:21.324Z,5.47
2019-05-10T13:42:47.576Z,7.20
2019-05-10T13:45:14.277Z,5.78
2019-05-10T13:47:40.627Z,4.87
2019-05-10T13:50:07.382Z,7.75
2019-05-10T13:52:38.065Z,6.72
2019-05-10T13:55:03.891Z,6.50
2019-05-10T13:57:30.287Z,7.47
2019-05-10T13:59:57.402Z,6.00
2019-05-10T14:02:32.536Z,6.53
2019-05-10T14:04:52.017Z,6.15
2019-05-10T14:07:18.475Z,6.53
2019-05-10T14:09:44.729Z,7.00
2019-05-10T14:12:16.129Z,6.80
2019-05-10T14:14:39.282Z,7.25
2019-05-10T14:17:05.755Z,7.10
2019-05-10T14:19:35.670Z,6.55
2019-05-10T14:22:00.429Z,7.10
2019-05-10T14:24:26.722Z,5.58
2019-05-10T14:26:57.100Z,8.28
2019-05-10T14:29:32.932Z,9.53
2019-05-10T14:31:52.356Z,7.67
2019-05-10T14:34:18.579Z,9.45
2019-05-10T14:36:44.857Z,6.20
2019-05-10T14:39:11.251Z,9.48
2019-05-10T14:41:45.186Z,7.97
2019-05-10T14:44:08.615Z,9.90
2019-05-10T14:46:34.880Z,7.62
2019-05-10T14:49:08.747Z,7.15
2019-05-10T14:51:43.969Z,7.28
2019-05-10T14:53:58.264Z,6.33
2019-05-10T14:56:25.807Z,8.13
2019-05-10T14:58:52.256Z,7.53
2019-05-10T15:01:18.755Z,8.13
2019-05-10T15:03:47.244Z,9.35
2019-05-10T15:06:13.413Z,7.47
2019-05-10T15:08:39.779Z,5.60
2019-05-10T15:11:06.134Z,11.38
2019-05-10T15:13:34.928Z,6.60
2019-05-10T15:16:00.739Z,7.50
2019-05-10T15:18:27.073Z,6.92
2019-05-10T15:20:53.332Z,8.63
2019-05-10T15:23:19.651Z,8.68
2019-05-10T15:25:56.330Z,7.95
2019-05-10T15:28:14.075Z,6.25
2019-05-10T15:30:45.955Z,7.22
2019-05-10T15:33:08.666Z,7.15
2019-05-10T15:35:35.055Z,7.10
2019-05-10T15:38:01.317Z,6.10
2019-05-10T15:40:27.763Z,7.42
2019-05-10T15:42:53.956Z,10.32
2019-05-10T15:45:20.768Z,11.25
2019-05-10T15:47:51.359Z,7.70
2019-05-10T15:50:15.584Z,8.78
2019-05-10T15:52:46.620Z,7.35
2019-05-10T15:55:11.441Z,7.03
2019-05-10T15:57:37.804Z,6.12
2019-05-10T16:00:04.825Z,10.32
2019-05-10T16:02:31.108Z,9.60
2019-05-10T16:04:57.346Z,9.38
2019-05-10T16:07:23.696Z,9.00
2019-05-10T16:09:54.774Z,7.25
2019-05-10T16:12:20.083Z,7.90
2019-05-10T16:14:46.472Z,8.45
2019-05-10T16:17:17.683Z,8.95
2019-05-10T16:19:41.033Z,7.72
2019-05-10T16:22:07.626Z,8.25
2019-05-10T16:24:33.904Z,7.47
2019-05-10T16:27:01.837Z,9.40
2019-05-10T16:29:28.457Z,10.68
2019-05-10T16:31:54.754Z,11.48
2019-05-10T16:34:26.460Z,10.75
2019-05-10T16:36:52.141Z,7.70
2019-05-10T16:39:18.514Z,9.83
2019-05-10T16:41:44.789Z,9.13
2019-05-10T16:44:11.066Z,9.00
2019-05-10T16:46:37.356Z,9.08
2019-05-10T16:49:03.828Z,9.78
2019-05-10T16:51:30.218Z,8.75
2019-05-10T16:53:56.491Z,9.90
2019-05-10T16:56:23.076Z,12.20
2019-05-10T16:58:53.198Z,9.50
2019-05-10T17:01:18.796Z,9.53
2019-05-10T17:03:51.100Z,8.95
2019-05-10T17:06:14.345Z,10.08
2019-05-10T17:08:40.710Z,10.68
2019-05-10T17:11:10.105Z,8.48
2019-05-10T17:13:41.521Z,9.98
2019-05-10T17:16:05.935Z,9.95
2019-05-10T17:18:32.201Z,11.68
2019-05-10T17:20:58.564Z,11.03
2019-05-10T17:23:24.843Z,9.35
2019-05-10T17:25:51.255Z,8.25
2019-05-10T17:28:17.526Z,10.93
2019-05-10T17:30:44.882Z,8.13
2019-05-10T17:33:11.290Z,10.63
2019-05-10T17:35:42.229Z,9.20
2019-05-10T17:38:07.996Z,9.43
2019-05-10T17:40:33.672Z,8.65
2019-05-10T17:43:01.851Z,7.67
2019-05-10T17:45:28.119Z,10.00
2019-05-10T17:47:54.364Z,10.82
2019-05-10T17:50:20.772Z,10.60
2019-05-10T17:52:47.025Z,10.15
2019-05-10T17:55:16.775Z,8.18
2019-05-10T17:57:41.540Z,10.38
2019-05-10T18:00:08.501Z,10.53
2019-05-10T18:02:34.847Z,10.72
2019-05-10T18:05:06.452Z,10.50
2019-05-10T18:07:29.590Z,10.68
2019-05-10T18:10:04.088Z,7.15
2019-05-10T18:12:30.491Z,10.08
2019-05-10T18:14:57.680Z,9.83
2019-05-10T18:17:25.874Z,10.10
2019-05-10T18:19:56.683Z,9.50
2019-05-10T18:22:20.507Z,11.95
2019-05-10T18:24:46.777Z,11.63
2019-05-10T18:27:13.039Z,7.45
2019-05-10T18:29:39.454Z,10.98
2019-05-10T18:32:05.918Z,12.47
2019-05-10T18:34:35.490Z,13.98
2019-05-10T18:37:02.112Z,9.40
2019-05-10T18:39:28.460Z,10.63
2019-05-10T18:41:54.832Z,8.63
2019-05-10T18:44:21.085Z,10.32
2019-05-10T18:46:47.381Z,8.83
2019-05-10T18:49:13.635Z,11.97
2019-05-10T18:51:40.066Z,13.18
2019-05-10T18:54:06.624Z,12.88
2019-05-10T18:56:33.228Z,12.25
2019-05-10T18:59:06.554Z,8.58
2019-05-10T19:01:32.994Z,10.28
2019-05-10T19:03:56.213Z,9.68
2019-05-10T19:06:22.496Z,11.53
2019-05-10T19:08:48.914Z,8.18
2019-05-10T19:11:15.357Z,11.57
2019-05-10T19:13:47.855Z,9.30
2019-05-10T19:16:09.765Z,11.30
2019-05-10T19:18:38.053Z,9.05
2019-05-10T19:21:04.496Z,8.80
2019-05-10T19:23:30.855Z,10.55
2019-05-10T19:25:57.155Z,9.78
2019-05-10T19:28:26.732Z,10.15
2019-05-10T19:30:52.824Z,13.15
2019-05-10T19:33:19.688Z,11.80
2019-05-10T19:35:46.019Z,6.90
2019-05-10T19:38:12.301Z,11.20
2019-05-10T19:40:38.682Z,8.43
2019-05-10T19:43:05.033Z,11.78
2019-05-10T19:45:31.461Z,13.30
2019-05-10T19:47:57.663Z,10.20
2019-05-10T19:50:30.328Z,15.63
2019-05-10T19:52:52.194Z,13.18
2019-05-10T19:55:19.494Z,9.40
2019-05-10T19:57:49.538Z,13.83
2019-05-10T20:00:15.184Z,9.35
2019-05-10T20:02:41.417Z,11.48
2019-05-10T20:05:07.774Z,8.65
2019-05-10T20:07:45.337Z,11.30
2019-05-10T20:10:07.375Z,10.75
2019-05-10T20:12:32.053Z,9.53
2019-05-10T20:14:58.355Z,11.38
2019-05-10T20:17:24.732Z,10.38
2019-05-10T20:19:51.065Z,10.53
2019-05-10T20:22:17.459Z,14.38
2019-05-10T20:24:43.715Z,9.45
2019-05-10T20:27:10.192Z,13.72
2019-05-10T20:29:36.458Z,10.35
2019-05-10T20:32:02.937Z,9.13
2019-05-10T20:34:29.199Z,10.53
2019-05-10T20:36:55.579Z,11.53
2019-05-10T20:39:21.964Z,10.53
2019-05-10T20:41:48.418Z,11.85
2019-05-10T20:44:14.662Z,11.03
2019-05-10T20:46:41.165Z,10.28
2019-05-10T20:49:07.400Z,11.18
2019-05-10T20:51:33.707Z,10.18
2019-05-10T20:53:59.986Z,10.38
2019-05-10T20:56:26.235Z,11.53
2019-05-10T20:58:52.591Z,12.28
2019-05-10T21:01:18.979Z,11.75
2019-05-10T21:03:45.344Z,8.78
2019-05-10T21:06:11.625Z,15.83
2019-05-10T21:08:38.096Z,11.40
2019-05-10T21:11:04.439Z,12.45
2019-05-10T21:13:30.777Z,12.28
2019-05-10T21:15:57.162Z,10.63
2019-05-10T21:18:23.458Z,13.35
2019-05-10T21:20:49.691Z,10.08
2019-05-10T21:23:16.077Z,14.55
2019-05-10T21:25:42.431Z,11.90
2019-05-10T21:28:08.697Z,12.13
2019-05-10T21:30:35.035Z,13.53
2019-05-10T21:33:01.430Z,12.07
2019-05-10T21:35:27.676Z,11.33
2019-05-10T21:37:54.018Z,9.90
2019-05-10T21:40:20.405Z,7.97
2019-05-10T21:42:46.753Z,9.70
2019-05-10T21:45:12.998Z,12.05
2019-05-10T21:47:51.239Z,12.35
2019-05-10T21:50:07.539Z,14.05
2019-05-10T21:52:33.814Z,12.50
2019-05-10T21:55:00.057Z,12.30
2019-05-10T21:57:26.423Z,11.90
2019-05-10T21:59:52.714Z,13.65
2019-05-10T22:02:19.170Z,14.05
2019-05-10T22:04:48.022Z,12.03
2019-05-10T22:07:14.037Z,12.65
2019-05-10T22:09:43.137Z,12.73
2019-05-10T22:12:09.719Z,11.38
2019-05-10T22:14:36.003Z,12.50
2019-05-10T22:17:02.377Z,13.00
2019-05-10T22:19:28.678Z,12.88
2019-05-10T22:21:55.567Z,14.95
2019-05-10T22:24:21.962Z,14.43
2019-05-10T22:26:48.202Z,12.68
2019-05-10T22:29:14.593Z,16.73
2019-05-10T22:31:40.890Z,14.68
2019-05-10T22:34:07.145Z,16.02
2019-05-10T22:36:33.436Z,12.00
2019-05-10T22:39:07.021Z,16.20
2019-05-10T22:41:27.724Z,12.03
2019-05-10T22:43:55.910Z,14.58
2019-05-10T22:46:22.309Z,12.98
2019-05-10T22:48:48.570Z,12.80
2019-05-10T22:51:14.839Z,13.43
2019-05-10T22:53:43.880Z,14.00
2019-05-10T22:56:10.127Z,17.45
2019-05-10T22:58:36.369Z,19.75
2019-05-10T23:01:02.760Z,14.65
2019-05-10T23:03:28.944Z,12.95
2019-05-10T23:05:55.301Z,15.68
2019-05-10T23:08:21.697Z,12.05
2019-05-10T23:10:47.962Z,17.20
2019-05-10T23:13:14.230Z,13.62
2019-05-10T23:15:40.678Z,13.80
2019-05-10T23:18:06.976Z,12.47
2019-05-10T23:20:33.385Z,13.43
2019-05-10T23:22:59.586Z,14.28
2019-05-10T23:25:25.955Z,12.33
2019-05-10T23:27:52.178Z,15.00
2019-05-10T23:30:18.546Z,13.32
2019-05-10T23:32:44.784Z,13.25
2019-05-10T23:35:14.531Z,14.33
2019-05-10T23:37:40.866Z,15.10
2019-05-10T23:40:07.520Z,14.63
2019-05-10T23:42:34.189Z,14.85
2019-05-10T23:45:00.665Z,15.30
2019-05-10T23:47:26.932Z,12.45
2019-05-10T23:49:53.258Z,12.88
2019-05-10T23:52:19.623Z,14.50
2019-05-10T23:54:45.959Z,15.53
2019-05-10T23:57:12.223Z,16.12
2019-05-10T23:59:38.648Z,12.63
